»·PEaware :: N508JP KRKS-KFSD

N508JP :: KRKS-KFSD

FLIGHT INFORMATION

Flight Status: Arrived
Operator: Privately registered:
United States
More flights under this callsign
Pilot: Chase C. (10526)
Aircraft: ECLIPSE 500
(EA50)
More flights by this aircraft type
Origin: KRKS Rock Springs-Sweetwater
United States
Destination: KFSD Foss
United States
More flights between these airports :: More routes between these airports
Route: OCS V4 CKW V6 MBW V100 ONL V148 FSD
File this flight plan on PilotEdge
Remarks:
Altitude:
(Current/Filed)
33,000ft
Speed:
(Current/Filed)
330kts
Departed: 13-Jul-18 03:43 PM
Arrived: 13-Jul-18 05:43 PM
Distance/Time
Traveled:
557nm/2:00
Distance/Time
To Go:
Arrived

Flight Plot

Page will automatically refresh every two minutes.

Flight plan parsing failed; only flown route is shown


Map Options




Map Legend


Flown Route
Filed Route
Departure Airport
Arrival Airport
Navaid (VOR, NDB)
Fix

Horizontal Profiles

Position Reports

Time Latitude Longitude Heading Altitude Ground
Speed
13-Jul-18 15:20 41.598996 -109.063745 313 6737ft 0kts
13-Jul-18 15:21 41.598996 -109.063745 313 6737ft 0kts
13-Jul-18 15:22 41.598996 -109.063745 313 6737ft 0kts
13-Jul-18 15:23 41.598996 -109.063745 313 6737ft 0kts
13-Jul-18 15:24 41.598996 -109.063745 313 6737ft 0kts
13-Jul-18 15:25 41.598996 -109.063745 313 6737ft 0kts
13-Jul-18 15:26 41.598996 -109.063745 313 6737ft 0kts
13-Jul-18 15:30 41.598996 -109.063745 0 6737ft 0kts
13-Jul-18 15:31 41.598996 -109.063745 313 6737ft 0kts
13-Jul-18 15:32 41.598996 -109.063745 313 6737ft 0kts
13-Jul-18 15:33 41.598996 -109.063745 313 6737ft 0kts
13-Jul-18 15:34 41.598996 -109.063745 313 6737ft 0kts
13-Jul-18 15:35 41.598996 -109.063745 313 6737ft 0kts
13-Jul-18 15:36 41.598996 -109.063745 313 6737ft 0kts
13-Jul-18 15:37 41.598996 -109.063745 313 6737ft 0kts
13-Jul-18 15:38 41.598996 -109.063745 313 6737ft 0kts
13-Jul-18 15:39 41.598996 -109.063745 313 6737ft 0kts
13-Jul-18 15:40 41.598996 -109.063745 313 6737ft 0kts
13-Jul-18 15:41 41.598996 -109.063745 313 6737ft 0kts
13-Jul-18 15:42 41.599354 -109.063567 53 6736ft 6kts
13-Jul-18 15:43 41.598828 -109.060725 105 6737ft 8kts
13-Jul-18 15:44 41.594765 -109.065129 225 6742ft 84kts
13-Jul-18 15:45 41.566615 -109.096797 194 7598ft 175kts
13-Jul-18 15:46 41.546153 -109.050700 48 8588ft 232kts
13-Jul-18 15:47 41.594434 -109.003177 78 10404ft 248kts
13-Jul-18 15:48 41.603692 -108.912956 80 12171ft 258kts
13-Jul-18 15:49 41.614089 -108.821104 80 13819ft 265kts
13-Jul-18 15:50 41.625320 -108.725312 79 15373ft 273kts
13-Jul-18 15:51 41.636729 -108.628681 79 16774ft 279kts
13-Jul-18 15:52 41.648371 -108.529807 79 18069ft 285kts
13-Jul-18 15:53 41.660431 -108.426745 79 19303ft 291kts
13-Jul-18 15:54 41.672162 -108.325755 79 20383ft 296kts
13-Jul-18 15:55 41.682144 -108.239173 79 21232ft 300kts
13-Jul-18 15:56 41.694293 -108.132990 79 22182ft 305kts
13-Jul-18 15:57 41.705745 -108.031934 79 23666ft 287kts
13-Jul-18 15:58 41.717025 -107.931833 78 24633ft 289kts
13-Jul-18 15:59 41.728535 -107.828803 78 25517ft 293kts
13-Jul-18 16:00 41.740163 -107.723752 78 26378ft 297kts
13-Jul-18 16:01 41.752074 -107.615190 78 27199ft 301kts
13-Jul-18 16:02 41.760482 -107.505142 82 27962ft 306kts
13-Jul-18 16:03 41.767584 -107.393054 81 28679ft 309kts
13-Jul-18 16:04 41.774566 -107.280384 82 29350ft 313kts
13-Jul-18 16:05 41.781492 -107.166406 82 29999ft 316kts
13-Jul-18 16:06 41.788366 -107.051286 82 30611ft 319kts
13-Jul-18 16:07 41.795065 -106.937321 82 31589ft 307kts
13-Jul-18 16:08 41.800928 -106.835662 82 32948ft 284kts
13-Jul-18 16:09 41.806476 -106.738432 82 33340ft 288kts
13-Jul-18 16:10 41.812178 -106.637008 82 33349ft 307kts
13-Jul-18 16:11 41.817658 -106.537540 82 33350ft 321kts
13-Jul-18 16:12 41.822840 -106.441909 82 33351ft 332kts
13-Jul-18 16:13 41.827962 -106.345862 83 33350ft 340kts
13-Jul-18 16:14 41.832760 -106.254566 83 33350ft 345kts
13-Jul-18 16:15 41.837749 -106.158003 83 33362ft 349kts
13-Jul-18 16:16 41.842638 -106.060670 82 33372ft 351kts
13-Jul-18 16:17 41.846697 -105.961645 83 33373ft 354kts
13-Jul-18 16:18 41.849728 -105.861314 84 33374ft 357kts
13-Jul-18 16:19 41.852707 -105.757839 84 33375ft 359kts
13-Jul-18 16:20 41.855805 -105.645888 84 33375ft 361kts
13-Jul-18 16:21 41.859105 -105.521950 84 33338ft 365kts
13-Jul-18 16:22 41.862386 -105.393272 84 33255ft 368kts
13-Jul-18 16:23 41.865562 -105.262964 85 33216ft 368kts
13-Jul-18 16:24 41.868607 -105.131668 85 33216ft 367kts
13-Jul-18 16:25 41.871523 -105.001412 85 33219ft 366kts
13-Jul-18 16:26 41.874280 -104.869386 85 33218ft 365kts
13-Jul-18 16:27 41.876809 -104.740592 85 33219ft 364kts
13-Jul-18 16:28 41.879129 -104.616334 85 33219ft 364kts
13-Jul-18 16:29 41.881354 -104.490105 85 33210ft 365kts
13-Jul-18 16:30 41.883555 -104.356680 85 33203ft 367kts
13-Jul-18 16:31 41.885575 -104.225091 86 33198ft 367kts
13-Jul-18 16:32 41.887477 -104.091364 86 33199ft 367kts
13-Jul-18 16:33 41.889210 -103.958533 86 33201ft 367kts
13-Jul-18 16:34 41.890798 -103.824944 86 33204ft 367kts
13-Jul-18 16:35 41.892232 -103.691225 86 33209ft 367kts
13-Jul-18 16:36 41.893511 -103.557433 86 33211ft 368kts
13-Jul-18 16:37 41.907978 -103.429403 68 33212ft 361kts
13-Jul-18 16:38 41.937483 -103.303220 68 33207ft 361kts
13-Jul-18 16:39 41.967451 -103.177246 68 33207ft 361kts
13-Jul-18 16:40 41.997233 -103.052189 69 33208ft 360kts
13-Jul-18 16:41 42.027015 -102.926280 70 33210ft 361kts
13-Jul-18 16:42 42.056289 -102.799920 73 33210ft 361kts
13-Jul-18 16:43 42.081451 -102.672154 73 33211ft 360kts
13-Jul-18 16:44 42.106133 -102.545297 73 33213ft 360kts
13-Jul-18 16:45 42.130852 -102.417307 73 33212ft 362kts
13-Jul-18 16:46 42.155619 -102.288156 73 33203ft 363kts
13-Jul-18 16:47 42.180087 -102.159717 73 33197ft 363kts
13-Jul-18 16:48 42.204416 -102.031117 73 33193ft 364kts
13-Jul-18 16:49 42.228315 -101.903971 73 33193ft 364kts
13-Jul-18 16:50 42.251928 -101.777513 73 33193ft 364kts
13-Jul-18 16:51 42.274962 -101.653338 73 33194ft 365kts
13-Jul-18 16:52 42.297086 -101.533301 73 33194ft 365kts
13-Jul-18 16:53 42.317459 -101.422082 73 33195ft 365kts
13-Jul-18 16:54 42.334768 -101.327086 74 33191ft 365kts
13-Jul-18 16:55 42.351897 -101.232556 74 33191ft 363kts
13-Jul-18 16:56 42.372625 -101.117546 74 33191ft 362kts
13-Jul-18 16:57 42.394410 -100.996002 74 33192ft 361kts
13-Jul-18 16:58 42.416074 -100.874405 75 33191ft 361kts
13-Jul-18 16:59 42.437244 -100.754549 75 33191ft 361kts
13-Jul-18 17:00 42.459815 -100.625791 75 33190ft 361kts
13-Jul-18 17:01 42.482424 -100.495984 75 33187ft 361kts
13-Jul-18 17:02 42.504805 -100.366654 75 33180ft 362kts
13-Jul-18 17:03 42.527117 -100.236775 76 33172ft 362kts
13-Jul-18 17:04 42.547840 -100.115275 76 33173ft 361kts
13-Jul-18 17:05 42.566375 -99.991049 92 33172ft 361kts
13-Jul-18 17:06 42.559635 -99.864260 95 33174ft 361kts
13-Jul-18 17:07 42.550916 -99.735561 96 33175ft 361kts
13-Jul-18 17:08 42.542072 -99.612612 95 32529ft 363kts
13-Jul-18 17:09 42.532850 -99.487422 95 31620ft 362kts
13-Jul-18 17:10 42.523386 -99.361052 95 30702ft 361kts
13-Jul-18 17:11 42.514113 -99.239051 95 29794ft 360kts
13-Jul-18 17:12 42.504743 -99.117547 95 28887ft 359kts
13-Jul-18 17:13 42.495334 -98.996935 95 27986ft 357kts
13-Jul-18 17:14 42.485846 -98.877202 95 27091ft 356kts
13-Jul-18 17:15 42.476090 -98.755949 95 26184ft 355kts
13-Jul-18 17:16 42.501376 -98.648484 50 25278ft 345kts
13-Jul-18 17:17 42.558048 -98.552054 47 24334ft 342kts
13-Jul-18 17:18 42.612591 -98.463185 48 23094ft 339kts
13-Jul-18 17:19 42.665396 -98.370201 48 21712ft 334kts
13-Jul-18 17:20 42.716038 -98.281089 49 20207ft 328kts
13-Jul-18 17:21 42.765534 -98.193839 49 18275ft 312kts
13-Jul-18 17:22 42.814378 -98.107543 49 16296ft 303kts
13-Jul-18 17:23 42.862712 -98.021910 49 14285ft 297kts
13-Jul-18 17:24 42.908204 -97.941082 50 12349ft 291kts
13-Jul-18 17:25 42.954187 -97.853228 58 10262ft 289kts
13-Jul-18 17:26 42.993547 -97.758633 58 8156ft 287kts
13-Jul-18 17:27 43.034327 -97.662196 58 7246ft 309kts
13-Jul-18 17:28 43.071328 -97.574564 57 6989ft 245kts
13-Jul-18 17:29 43.108066 -97.487700 57 6991ft 275kts
13-Jul-18 17:30 43.146795 -97.396614 57 6992ft 278kts
13-Jul-18 17:31 43.185693 -97.305323 58 6991ft 277kts
13-Jul-18 17:32 43.224051 -97.215510 58 6991ft 278kts
13-Jul-18 17:33 43.257260 -97.138009 58 6989ft 278kts
13-Jul-18 17:34 43.291425 -97.058795 57 6986ft 277kts
13-Jul-18 17:35 43.328714 -96.972877 57 6666ft 240kts
13-Jul-18 17:36 43.355843 -96.919635 52 6002ft 192kts
13-Jul-18 17:37 43.386334 -96.868218 47 5169ft 176kts
13-Jul-18 17:38 43.419713 -96.823351 37 4206ft 174kts
13-Jul-18 17:39 43.456353 -96.783366 37 3234ft 172kts
13-Jul-18 17:40 43.490856 -96.749746 27 2975ft 140kts
13-Jul-18 17:41 43.521430 -96.728019 19 2653ft 120kts
13-Jul-18 17:42 43.549973 -96.721317 355 2074ft 103kts
13-Jul-18 17:43 43.574388 -96.734009 338 1424ft 82kts
13-Jul-18 17:44 43.586341 -96.741690 331 1423ft 27kts
13-Jul-18 17:45 43.590411 -96.742739 0 1422ft 5kts
13-Jul-18 17:46 43.591151 -96.741989 65 1424ft 3kts
13-Jul-18 17:47 43.591259 -96.741672 64 1424ft 0kts
13-Jul-18 17:48 43.591259 -96.741672 64 1424ft 0kts
13-Jul-18 17:49 43.591259 -96.741672 64 1424ft 0kts
13-Jul-18 17:50 43.591235 -96.741545 63 1423ft 0kts

Navigation Log

Ident Type
Flight plan parsing failed, navigation log unavailable